sensor_id;sensor_type;location;lat;lon;timestamp;temperature;humidity
4411;DHT22;2218;51.408;7.208;2024-03-02T00:01:41;18.50;33.90
4411;DHT22;2218;51.408;7.208;2024-03-02T00:04:08;18.50;33.90
4411;DHT22;2218;51.408;7.208;2024-03-02T00:06:37;18.50;33.90
4411;DHT22;2218;51.408;7.208;2024-03-02T00:09:04;18.50;34.00
4411;DHT22;2218;51.408;7.208;2024-03-02T00:11:34;18.50;34.00
4411;DHT22;2218;51.408;7.208;2024-03-02T00:14:03;18.50;34.00
4411;DHT22;2218;51.408;7.208;2024-03-02T00:16:31;18.50;34.00
4411;DHT22;2218;51.408;7.208;2024-03-02T00:19:01;18.50;34.10
4411;DHT22;2218;51.408;7.208;2024-03-02T00:21:30;18.50;34.10
4411;DHT22;2218;51.408;7.208;2024-03-02T00:24:00;18.40;34.00
4411;DHT22;2218;51.408;7.208;2024-03-02T00:26:31;18.40;34.00
4411;DHT22;2218;51.408;7.208;2024-03-02T00:28:59;18.40;34.20
4411;DHT22;2218;51.408;7.208;2024-03-02T00:31:26;18.40;34.10
4411;DHT22;2218;51.408;7.208;2024-03-02T00:33:53;18.40;34.10
4411;DHT22;2218;51.408;7.208;2024-03-02T00:36:24;18.40;34.10
4411;DHT22;2218;51.408;7.208;2024-03-02T00:38:54;18.40;34.10
4411;DHT22;2218;51.408;7.208;2024-03-02T00:41:24;18.40;34.10
4411;DHT22;2218;51.408;7.208;2024-03-02T00:43:58;18.40;34.20
4411;DHT22;2218;51.408;7.208;2024-03-02T00:46:27;18.40;34.20
4411;DHT22;2218;51.408;7.208;2024-03-02T00:48:58;18.40;34.20
4411;DHT22;2218;51.408;7.208;2024-03-02T00:51:28;18.40;34.20
4411;DHT22;2218;51.408;7.208;2024-03-02T00:53:59;18.40;34.20
4411;DHT22;2218;51.408;7.208;2024-03-02T00:56:31;18.40;34.30
4411;DHT22;2218;51.408;7.208;2024-03-02T00:59:00;18.40;34.30
4411;DHT22;2218;51.408;7.208;2024-03-02T01:01:27;18.40;34.30
4411;DHT22;2218;51.408;7.208;2024-03-02T01:03:54;18.30;34.20
4411;DHT22;2218;51.408;7.208;2024-03-02T01:06:21;18.30;34.20
4411;DHT22;2218;51.408;7.208;2024-03-02T01:08:48;18.30;34.20
4411;DHT22;2218;51.408;7.208;2024-03-02T01:11:17;18.30;34.20
4411;DHT22;2218;51.408;7.208;2024-03-02T01:13:46;18.30;34.20
4411;DHT22;2218;51.408;7.208;2024-03-02T01:16:13;18.30;34.30
4411;DHT22;2218;51.408;7.208;2024-03-02T01:18:42;18.30;34.30
4411;DHT22;2218;51.408;7.208;2024-03-02T01:21:09;18.30;34.30
4411;DHT22;2218;51.408;7.208;2024-03-02T01:23:36;18.30;34.30
4411;DHT22;2218;51.408;7.208;2024-03-02T01:26:03;18.30;34.30
4411;DHT22;2218;51.408;7.208;2024-03-02T01:28:30;18.30;34.30
4411;DHT22;2218;51.408;7.208;2024-03-02T01:30:58;18.30;34.30
4411;DHT22;2218;51.408;7.208;2024-03-02T01:33:25;18.30;34.30
4411;DHT22;2218;51.408;7.208;2024-03-02T01:35:52;18.30;34.30
4411;DHT22;2218;51.408;7.208;2024-03-02T01:38:19;18.30;34.30
4411;DHT22;2218;51.408;7.208;2024-03-02T01:40:46;18.30;34.40
4411;DHT22;2218;51.408;7.208;2024-03-02T01:43:14;18.30;34.30
4411;DHT22;2218;51.408;7.208;2024-03-02T01:45:41;18.30;34.40
4411;DHT22;2218;51.408;7.208;2024-03-02T01:48:10;18.30;34.40
4411;DHT22;2218;51.408;7.208;2024-03-02T01:50:37;18.30;34.40
4411;DHT22;2218;51.408;7.208;2024-03-02T01:53:05;18.20;34.30
4411;DHT22;2218;51.408;7.208;2024-03-02T01:55:32;18.20;34.30
4411;DHT22;2218;51.408;7.208;2024-03-02T01:58:00;18.20;34.30
4411;DHT22;2218;51.408;7.208;2024-03-02T02:00:27;18.20;34.30
4411;DHT22;2218;51.408;7.208;2024-03-02T02:02:55;18.20;34.30
4411;DHT22;2218;51.408;7.208;2024-03-02T02:05:24;18.20;34.30
4411;DHT22;2218;51.408;7.208;2024-03-02T02:07:51;18.20;34.40
4411;DHT22;2218;51.408;7.208;2024-03-02T02:10:18;18.20;34.40
4411;DHT22;2218;51.408;7.208;2024-03-02T02:12:45;18.20;34.40
4411;DHT22;2218;51.408;7.208;2024-03-02T02:15:22;18.20;34.40
4411;DHT22;2218;51.408;7.208;2024-03-02T02:17:50;18.20;34.40
4411;DHT22;2218;51.408;7.208;2024-03-02T02:20:18;18.20;34.40
4411;DHT22;2218;51.408;7.208;2024-03-02T02:22:57;18.20;34.40
4411;DHT22;2218;51.408;7.208;2024-03-02T02:25:26;18.20;34.40
4411;DHT22;2218;51.408;7.208;2024-03-02T02:27:53;18.20;34.40
4411;DHT22;2218;51.408;7.208;2024-03-02T02:30:22;18.20;34.40
4411;DHT22;2218;51.408;7.208;2024-03-02T02:32:50;18.20;34.40
4411;DHT22;2218;51.408;7.208;2024-03-02T02:35:17;18.20;34.40
4411;DHT22;2218;51.408;7.208;2024-03-02T02:37:45;18.20;34.40
4411;DHT22;2218;51.408;7.208;2024-03-02T02:40:15;18.20;34.40
4411;DHT22;2218;51.408;7.208;2024-03-02T02:42:44;18.10;34.30
4411;DHT22;2218;51.408;7.208;2024-03-02T02:45:11;18.20;34.40
4411;DHT22;2218;51.408;7.208;2024-03-02T02:47:39;18.10;34.30
4411;DHT22;2218;51.408;7.208;2024-03-02T02:50:08;18.10;34.30
4411;DHT22;2218;51.408;7.208;2024-03-02T02:52:37;18.10;34.40
4411;DHT22;2218;51.408;7.208;2024-03-02T02:55:06;18.10;34.30
4411;DHT22;2218;51.408;7.208;2024-03-02T02:57:36;18.10;34.30
4411;DHT22;2218;51.408;7.208;2024-03-02T03:00:06;18.10;34.30
4411;DHT22;2218;51.408;7.208;2024-03-02T03:02:40;18.10;34.30
4411;DHT22;2218;51.408;7.208;2024-03-02T03:05:08;18.20;34.40
4411;DHT22;2218;51.408;7.208;2024-03-02T03:07:36;18.20;34.30
4411;DHT22;2218;51.408;7.208;2024-03-02T03:10:07;18.20;34.20
4411;DHT22;2218;51.408;7.208;2024-03-02T03:12:36;18.30;34.10
4411;DHT22;2218;51.408;7.208;2024-03-02T03:15:04;18.30;34.10
4411;DHT22;2218;51.408;7.208;2024-03-02T03:17:32;18.30;34.00
4411;DHT22;2218;51.408;7.208;2024-03-02T03:19:59;18.30;34.00
4411;DHT22;2218;51.408;7.208;2024-03-02T03:22:26;18.40;34.10
4411;DHT22;2218;51.408;7.208;2024-03-02T03:24:53;18.40;34.00
4411;DHT22;2218;51.408;7.208;2024-03-02T03:27:21;18.40;34.00
4411;DHT22;2218;51.408;7.208;2024-03-02T03:29:50;18.40;33.90
4411;DHT22;2218;51.408;7.208;2024-03-02T03:32:17;18.40;33.90
4411;DHT22;2218;51.408;7.208;2024-03-02T03:34:44;18.40;33.80
4411;DHT22;2218;51.408;7.208;2024-03-02T03:37:11;18.40;33.90
4411;DHT22;2218;51.408;7.208;2024-03-02T03:39:38;18.50;33.90
4411;DHT22;2218;51.408;7.208;2024-03-02T03:42:05;18.50;33.90
4411;DHT22;2218;51.408;7.208;2024-03-02T03:44:33;18.50;33.90
4411;DHT22;2218;51.408;7.208;2024-03-02T03:47:01;18.50;33.90
4411;DHT22;2218;51.408;7.208;2024-03-02T03:49:28;18.50;33.90
4411;DHT22;2218;51.408;7.208;2024-03-02T03:51:56;18.50;33.80
4411;DHT22;2218;51.408;7.208;2024-03-02T03:54:23;18.50;33.80
4411;DHT22;2218;51.408;7.208;2024-03-02T03:56:50;18.50;33.80
4411;DHT22;2218;51.408;7.208;2024-03-02T03:59:17;18.50;33.80
4411;DHT22;2218;51.408;7.208;2024-03-02T04:01:43;18.50;33.80
4411;DHT22;2218;51.408;7.208;2024-03-02T04:04:13;18.50;33.90
4411;DHT22;2218;51.408;7.208;2024-03-02T04:06:40;18.50;33.80
4411;DHT22;2218;51.408;7.208;2024-03-02T04:09:07;18.50;33.80
4411;DHT22;2218;51.408;7.208;2024-03-02T04:11:34;18.50;33.80
4411;DHT22;2218;51.408;7.208;2024-03-02T04:14:01;18.50;33.80
4411;DHT22;2218;51.408;7.208;2024-03-02T04:16:28;18.50;33.80
4411;DHT22;2218;51.408;7.208;2024-03-02T04:18:55;18.50;33.90
4411;DHT22;2218;51.408;7.208;2024-03-02T04:21:23;18.50;33.90
4411;DHT22;2218;51.408;7.208;2024-03-02T04:23:50;18.50;33.90
4411;DHT22;2218;51.408;7.208;2024-03-02T04:26:17;18.40;33.80
4411;DHT22;2218;51.408;7.208;2024-03-02T04:28:47;18.50;33.90
4411;DHT22;2218;51.408;7.208;2024-03-02T04:31:15;18.50;33.90
4411;DHT22;2218;51.408;7.208;2024-03-02T04:33:41;18.50;33.90
4411;DHT22;2218;51.408;7.208;2024-03-02T04:36:08;18.50;33.90
4411;DHT22;2218;51.408;7.208;2024-03-02T04:38:37;18.40;33.80
4411;DHT22;2218;51.408;7.208;2024-03-02T04:41:06;18.40;33.80
4411;DHT22;2218;51.408;7.208;2024-03-02T04:43:34;18.40;33.80
4411;DHT22;2218;51.408;7.208;2024-03-02T04:46:01;18.40;33.80
4411;DHT22;2218;51.408;7.208;2024-03-02T04:48:28;18.40;33.80
4411;DHT22;2218;51.408;7.208;2024-03-02T04:50:55;18.40;33.80
4411;DHT22;2218;51.408;7.208;2024-03-02T04:53:22;18.40;33.80
4411;DHT22;2218;51.408;7.208;2024-03-02T04:55:50;18.40;33.80
4411;DHT22;2218;51.408;7.208;2024-03-02T04:58:35;18.40;33.80
4411;DHT22;2218;51.408;7.208;2024-03-02T05:01:02;18.40;33.80
4411;DHT22;2218;51.408;7.208;2024-03-02T05:03:29;18.40;33.80
4411;DHT22;2218;51.408;7.208;2024-03-02T05:05:56;18.40;33.80
4411;DHT22;2218;51.408;7.208;2024-03-02T05:08:23;18.40;33.80
4411;DHT22;2218;51.408;7.208;2024-03-02T05:10:52;18.40;33.80
4411;DHT22;2218;51.408;7.208;2024-03-02T05:13:18;18.40;33.80
4411;DHT22;2218;51.408;7.208;2024-03-02T05:15:47;18.40;33.80
4411;DHT22;2218;51.408;7.208;2024-03-02T05:18:14;18.40;33.80
4411;DHT22;2218;51.408;7.208;2024-03-02T05:20:41;18.40;33.80
4411;DHT22;2218;51.408;7.208;2024-03-02T05:23:08;18.40;33.80
4411;DHT22;2218;51.408;7.208;2024-03-02T05:25:35;18.40;34.40
4411;DHT22;2218;51.408;7.208;2024-03-02T05:28:04;18.40;33.80
4411;DHT22;2218;51.408;7.208;2024-03-02T05:30:31;18.40;33.90
4411;DHT22;2218;51.408;7.208;2024-03-02T05:32:58;18.40;33.80
4411;DHT22;2218;51.408;7.208;2024-03-02T05:35:25;18.40;33.80
4411;DHT22;2218;51.408;7.208;2024-03-02T05:37:52;18.40;33.80
4411;DHT22;2218;51.408;7.208;2024-03-02T05:40:19;18.40;33.80
4411;DHT22;2218;51.408;7.208;2024-03-02T05:42:46;18.40;33.80
4411;DHT22;2218;51.408;7.208;2024-03-02T05:45:15;18.40;33.80
4411;DHT22;2218;51.408;7.208;2024-03-02T05:47:42;18.40;33.80
4411;DHT22;2218;51.408;7.208;2024-03-02T05:50:09;18.40;33.80
4411;DHT22;2218;51.408;7.208;2024-03-02T05:52:36;18.40;33.80
4411;DHT22;2218;51.408;7.208;2024-03-02T05:55:04;18.40;33.80
4411;DHT22;2218;51.408;7.208;2024-03-02T05:57:32;18.40;33.90
4411;DHT22;2218;51.408;7.208;2024-03-02T06:00:15;18.40;33.80
4411;DHT22;2218;51.408;7.208;2024-03-02T06:02:42;18.40;33.80
4411;DHT22;2218;51.408;7.208;2024-03-02T06:05:10;18.40;33.80
4411;DHT22;2218;51.408;7.208;2024-03-02T06:07:37;18.40;33.80
4411;DHT22;2218;51.408;7.208;2024-03-02T06:10:05;18.40;33.80
4411;DHT22;2218;51.408;7.208;2024-03-02T06:12:34;18.40;33.80
4411;DHT22;2218;51.408;7.208;2024-03-02T06:15:01;18.40;33.80
4411;DHT22;2218;51.408;7.208;2024-03-02T06:17:30;18.40;33.80
4411;DHT22;2218;51.408;7.208;2024-03-02T06:19:57;18.40;33.80
4411;DHT22;2218;51.408;7.208;2024-03-02T06:22:24;18.40;33.80
4411;DHT22;2218;51.408;7.208;2024-03-02T06:24:51;18.40;33.80
4411;DHT22;2218;51.408;7.208;2024-03-02T06:27:18;18.40;33.80
4411;DHT22;2218;51.408;7.208;2024-03-02T06:29:45;18.40;33.80
4411;DHT22;2218;51.408;7.208;2024-03-02T06:32:12;18.40;33.80
4411;DHT22;2218;51.408;7.208;2024-03-02T06:34:40;18.40;33.80
4411;DHT22;2218;51.408;7.208;2024-03-02T06:37:07;18.40;33.80
4411;DHT22;2218;51.408;7.208;2024-03-02T06:39:35;18.40;33.80
4411;DHT22;2218;51.408;7.208;2024-03-02T06:42:03;18.40;33.90
4411;DHT22;2218;51.408;7.208;2024-03-02T06:44:30;18.40;33.80
4411;DHT22;2218;51.408;7.208;2024-03-02T06:46:57;18.40;33.80
4411;DHT22;2218;51.408;7.208;2024-03-02T06:49:24;18.40;33.80
4411;DHT22;2218;51.408;7.208;2024-03-02T06:51:53;18.40;33.80
4411;DHT22;2218;51.408;7.208;2024-03-02T06:54:20;18.40;33.90
4411;DHT22;2218;51.408;7.208;2024-03-02T06:56:46;18.40;33.80
4411;DHT22;2218;51.408;7.208;2024-03-02T06:59:13;18.50;33.90
4411;DHT22;2218;51.408;7.208;2024-03-02T07:01:40;18.50;33.90
4411;DHT22;2218;51.408;7.208;2024-03-02T07:04:08;18.50;33.90
4411;DHT22;2218;51.408;7.208;2024-03-02T07:06:35;18.50;33.80
4411;DHT22;2218;51.408;7.208;2024-03-02T07:09:03;18.50;33.70
4411;DHT22;2218;51.408;7.208;2024-03-02T07:11:30;18.60;33.80
4411;DHT22;2218;51.408;7.208;2024-03-02T07:13:57;18.60;33.70
4411;DHT22;2218;51.408;7.208;2024-03-02T07:16:24;18.60;33.80
4411;DHT22;2218;51.408;7.208;2024-03-02T07:18:54;18.60;33.80
4411;DHT22;2218;51.408;7.208;2024-03-02T07:21:22;18.60;33.80
4411;DHT22;2218;51.408;7.208;2024-03-02T07:23:49;18.60;33.70
4411;DHT22;2218;51.408;7.208;2024-03-02T07:26:18;18.60;33.80
4411;DHT22;2218;51.408;7.208;2024-03-02T07:28:46;18.70;33.80
4411;DHT22;2218;51.408;7.208;2024-03-02T07:31:14;18.70;33.90
4411;DHT22;2218;51.408;7.208;2024-03-02T07:33:43;18.70;33.80
4411;DHT22;2218;51.408;7.208;2024-03-02T07:36:11;18.70;33.80
4411;DHT22;2218;51.408;7.208;2024-03-02T07:38:38;18.70;33.70
4411;DHT22;2218;51.408;7.208;2024-03-02T07:41:07;18.70;33.70
4411;DHT22;2218;51.408;7.208;2024-03-02T07:43:38;18.70;33.70
4411;DHT22;2218;51.408;7.208;2024-03-02T07:46:05;18.80;33.70
4411;DHT22;2218;51.408;7.208;2024-03-02T07:48:32;18.80;33.70
4411;DHT22;2218;51.408;7.208;2024-03-02T07:50:59;18.80;33.70
4411;DHT22;2218;51.408;7.208;2024-03-02T07:53:28;18.80;33.60
4411;DHT22;2218;51.408;7.208;2024-03-02T07:55:56;18.80;33.60
4411;DHT22;2218;51.408;7.208;2024-03-02T07:58:27;18.80;33.60
4411;DHT22;2218;51.408;7.208;2024-03-02T08:00:57;18.80;33.50
4411;DHT22;2218;51.408;7.208;2024-03-02T08:03:26;18.80;33.50
4411;DHT22;2218;51.408;7.208;2024-03-02T08:05:53;18.80;33.50
4411;DHT22;2218;51.408;7.208;2024-03-02T08:08:20;18.90;33.50
4411;DHT22;2218;51.408;7.208;2024-03-02T08:10:47;18.90;33.50
4411;DHT22;2218;51.408;7.208;2024-03-02T08:13:14;18.90;33.50
4411;DHT22;2218;51.408;7.208;2024-03-02T08:15:41;18.90;33.50
4411;DHT22;2218;51.408;7.208;2024-03-02T08:18:09;18.90;33.50
4411;DHT22;2218;51.408;7.208;2024-03-02T08:20:36;18.90;33.50
4411;DHT22;2218;51.408;7.208;2024-03-02T08:23:04;18.90;33.50
4411;DHT22;2218;51.408;7.208;2024-03-02T08:25:31;18.90;33.50
4411;DHT22;2218;51.408;7.208;2024-03-02T08:27:59;18.90;33.50
4411;DHT22;2218;51.408;7.208;2024-03-02T08:30:27;18.90;33.50
4411;DHT22;2218;51.408;7.208;2024-03-02T08:32:54;18.90;33.50
4411;DHT22;2218;51.408;7.208;2024-03-02T08:35:23;18.90;33.60
4411;DHT22;2218;51.408;7.208;2024-03-02T08:37:50;18.90;33.60
4411;DHT22;2218;51.408;7.208;2024-03-02T08:40:16;18.90;33.60
4411;DHT22;2218;51.408;7.208;2024-03-02T08:42:43;18.90;33.70
4411;DHT22;2218;51.408;7.208;2024-03-02T08:45:11;19.00;33.80
4411;DHT22;2218;51.408;7.208;2024-03-02T08:47:38;19.00;33.70
4411;DHT22;2218;51.408;7.208;2024-03-02T08:50:06;19.00;33.90
4411;DHT22;2218;51.408;7.208;2024-03-02T08:52:35;18.90;33.80
4411;DHT22;2218;51.408;7.208;2024-03-02T08:55:03;19.00;33.90
4411;DHT22;2218;51.408;7.208;2024-03-02T08:57:31;19.00;33.90
4411;DHT22;2218;51.408;7.208;2024-03-02T08:59:58;19.00;33.80
4411;DHT22;2218;51.408;7.208;2024-03-02T09:02:26;19.00;33.90
4411;DHT22;2218;51.408;7.208;2024-03-02T09:04:53;19.00;33.90
4411;DHT22;2218;51.408;7.208;2024-03-02T09:07:21;19.00;33.90
4411;DHT22;2218;51.408;7.208;2024-03-02T09:09:49;19.00;33.90
4411;DHT22;2218;51.408;7.208;2024-03-02T09:12:16;19.00;33.90
4411;DHT22;2218;51.408;7.208;2024-03-02T09:14:43;19.00;33.90
4411;DHT22;2218;51.408;7.208;2024-03-02T09:17:10;19.00;33.90
4411;DHT22;2218;51.408;7.208;2024-03-02T09:19:37;19.00;33.90
4411;DHT22;2218;51.408;7.208;2024-03-02T09:22:04;19.00;33.90
4411;DHT22;2218;51.408;7.208;2024-03-02T09:24:32;19.00;33.90
4411;DHT22;2218;51.408;7.208;2024-03-02T09:27:01;19.00;33.90
4411;DHT22;2218;51.408;7.208;2024-03-02T09:29:27;19.00;33.90
4411;DHT22;2218;51.408;7.208;2024-03-02T09:31:55;19.00;33.90
4411;DHT22;2218;51.408;7.208;2024-03-02T09:34:22;19.00;33.90
4411;DHT22;2218;51.408;7.208;2024-03-02T09:36:50;19.00;33.90
4411;DHT22;2218;51.408;7.208;2024-03-02T09:39:18;19.00;33.90
4411;DHT22;2218;51.408;7.208;2024-03-02T09:41:45;19.00;33.90
4411;DHT22;2218;51.408;7.208;2024-03-02T09:44:14;19.00;33.90
4411;DHT22;2218;51.408;7.208;2024-03-02T09:46:41;19.00;33.90
4411;DHT22;2218;51.408;7.208;2024-03-02T09:49:09;19.00;33.90
4411;DHT22;2218;51.408;7.208;2024-03-02T09:51:37;19.00;34.00
4411;DHT22;2218;51.408;7.208;2024-03-02T09:54:04;18.90;33.90
4411;DHT22;2218;51.408;7.208;2024-03-02T09:56:31;18.90;33.90
4411;DHT22;2218;51.408;7.208;2024-03-02T09:58:59;18.90;34.40
4411;DHT22;2218;51.408;7.208;2024-03-02T10:01:27;18.90;33.90
4411;DHT22;2218;51.408;7.208;2024-03-02T10:03:55;18.90;33.90
4411;DHT22;2218;51.408;7.208;2024-03-02T10:06:26;18.90;33.90
4411;DHT22;2218;51.408;7.208;2024-03-02T10:08:55;18.90;33.90
4411;DHT22;2218;51.408;7.208;2024-03-02T10:11:26;18.90;34.00
4411;DHT22;2218;51.408;7.208;2024-03-02T10:14:08;18.90;34.40
4411;DHT22;2218;51.408;7.208;2024-03-02T10:16:38;18.90;33.90
4411;DHT22;2218;51.408;7.208;2024-03-02T10:19:17;18.90;33.90
4411;DHT22;2218;51.408;7.208;2024-03-02T10:21:45;18.90;34.00
4411;DHT22;2218;51.408;7.208;2024-03-02T10:24:13;18.90;34.00
4411;DHT22;2218;51.408;7.208;2024-03-02T10:26:39;18.90;34.00
4411;DHT22;2218;51.408;7.208;2024-03-02T10:29:08;18.90;34.00
4411;DHT22;2218;51.408;7.208;2024-03-02T10:31:38;18.90;34.00
4411;DHT22;2218;51.408;7.208;2024-03-02T10:34:06;18.90;34.00
4411;DHT22;2218;51.408;7.208;2024-03-02T10:36:34;18.90;34.00
4411;DHT22;2218;51.408;7.208;2024-03-02T10:39:02;18.90;34.00
4411;DHT22;2218;51.408;7.208;2024-03-02T10:41:32;18.90;34.00
4411;DHT22;2218;51.408;7.208;2024-03-02T10:44:02;18.90;34.10
4411;DHT22;2218;51.408;7.208;2024-03-02T10:46:32;18.90;34.10
4411;DHT22;2218;51.408;7.208;2024-03-02T10:49:02;18.90;34.10
4411;DHT22;2218;51.408;7.208;2024-03-02T10:51:31;18.90;34.10
4411;DHT22;2218;51.408;7.208;2024-03-02T10:54:02;18.90;34.10
4411;DHT22;2218;51.408;7.208;2024-03-02T10:56:33;18.90;34.10
4411;DHT22;2218;51.408;7.208;2024-03-02T10:59:03;18.90;34.10
4411;DHT22;2218;51.408;7.208;2024-03-02T11:01:43;18.90;34.10
4411;DHT22;2218;51.408;7.208;2024-03-02T11:04:16;18.90;34.20
4411;DHT22;2218;51.408;7.208;2024-03-02T11:06:48;18.90;34.10
4411;DHT22;2218;51.408;7.208;2024-03-02T11:09:19;18.90;34.10
4411;DHT22;2218;51.408;7.208;2024-03-02T11:11:54;18.90;34.20
4411;DHT22;2218;51.408;7.208;2024-03-02T11:14:30;18.90;34.20
4411;DHT22;2218;51.408;7.208;2024-03-02T11:17:00;18.90;34.20
4411;DHT22;2218;51.408;7.208;2024-03-02T11:19:32;18.90;34.20
4411;DHT22;2218;51.408;7.208;2024-03-02T11:22:02;18.90;34.20
4411;DHT22;2218;51.408;7.208;2024-03-02T11:24:33;18.90;34.20
4411;DHT22;2218;51.408;7.208;2024-03-02T11:27:01;18.90;34.20
4411;DHT22;2218;51.408;7.208;2024-03-02T11:29:46;18.90;34.20
4411;DHT22;2218;51.408;7.208;2024-03-02T11:32:20;18.90;34.20
4411;DHT22;2218;51.408;7.208;2024-03-02T11:34:50;18.90;34.20
4411;DHT22;2218;51.408;7.208;2024-03-02T11:37:19;18.90;34.20
4411;DHT22;2218;51.408;7.208;2024-03-02T11:39:48;18.90;34.20
4411;DHT22;2218;51.408;7.208;2024-03-02T11:42:16;18.90;34.20
4411;DHT22;2218;51.408;7.208;2024-03-02T11:44:45;18.90;34.20
4411;DHT22;2218;51.408;7.208;2024-03-02T11:47:14;18.90;34.20
4411;DHT22;2218;51.408;7.208;2024-03-02T11:49:44;18.90;34.20
4411;DHT22;2218;51.408;7.208;2024-03-02T11:52:14;18.90;34.20
4411;DHT22;2218;51.408;7.208;2024-03-02T11:54:44;18.90;34.20
4411;DHT22;2218;51.408;7.208;2024-03-02T11:57:17;18.90;34.20
4411;DHT22;2218;51.408;7.208;2024-03-02T11:59:48;18.90;34.20
4411;DHT22;2218;51.408;7.208;2024-03-02T12:02:17;18.90;34.20
4411;DHT22;2218;51.408;7.208;2024-03-02T12:04:46;18.90;34.20
4411;DHT22;2218;51.408;7.208;2024-03-02T12:07:19;18.90;34.20
4411;DHT22;2218;51.408;7.208;2024-03-02T12:09:48;18.90;34.20
4411;DHT22;2218;51.408;7.208;2024-03-02T12:12:15;18.90;34.20
4411;DHT22;2218;51.408;7.208;2024-03-02T12:14:51;18.90;34.20
4411;DHT22;2218;51.408;7.208;2024-03-02T12:17:21;18.90;34.20
4411;DHT22;2218;51.408;7.208;2024-03-02T12:19:48;18.90;34.20
4411;DHT22;2218;51.408;7.208;2024-03-02T12:22:15;18.90;34.20
4411;DHT22;2218;51.408;7.208;2024-03-02T12:24:44;18.90;34.20
4411;DHT22;2218;51.408;7.208;2024-03-02T12:27:13;18.90;34.20
4411;DHT22;2218;51.408;7.208;2024-03-02T12:29:41;18.90;34.20
4411;DHT22;2218;51.408;7.208;2024-03-02T12:32:10;18.90;34.30
4411;DHT22;2218;51.408;7.208;2024-03-02T12:34:38;18.90;34.20
4411;DHT22;2218;51.408;7.208;2024-03-02T12:37:05;18.90;34.20
4411;DHT22;2218;51.408;7.208;2024-03-02T12:39:32;18.90;34.20
4411;DHT22;2218;51.408;7.208;2024-03-02T12:42:02;18.90;34.20
4411;DHT22;2218;51.408;7.208;2024-03-02T12:44:30;18.90;34.30
4411;DHT22;2218;51.408;7.208;2024-03-02T12:46:56;18.90;34.20
4411;DHT22;2218;51.408;7.208;2024-03-02T12:49:23;18.90;34.30
4411;DHT22;2218;51.408;7.208;2024-03-02T12:51:51;18.90;34.30
4411;DHT22;2218;51.408;7.208;2024-03-02T12:54:22;18.90;34.30
4411;DHT22;2218;51.408;7.208;2024-03-02T12:56:50;18.90;34.30
4411;DHT22;2218;51.408;7.208;2024-03-02T12:59:23;18.90;34.30
4411;DHT22;2218;51.408;7.208;2024-03-02T13:01:52;18.90;34.30
4411;DHT22;2218;51.408;7.208;2024-03-02T13:04:23;18.90;34.30
4411;DHT22;2218;51.408;7.208;2024-03-02T13:06:51;18.90;34.30
4411;DHT22;2218;51.408;7.208;2024-03-02T13:09:19;18.90;34.30
4411;DHT22;2218;51.408;7.208;2024-03-02T13:11:46;18.90;34.30
4411;DHT22;2218;51.408;7.208;2024-03-02T13:14:14;18.90;34.30
4411;DHT22;2218;51.408;7.208;2024-03-02T13:16:44;18.90;34.30
4411;DHT22;2218;51.408;7.208;2024-03-02T13:19:12;18.90;34.30
4411;DHT22;2218;51.408;7.208;2024-03-02T13:21:39;18.90;34.30
4411;DHT22;2218;51.408;7.208;2024-03-02T13:24:07;18.90;34.30
4411;DHT22;2218;51.408;7.208;2024-03-02T13:26:34;18.90;34.30
4411;DHT22;2218;51.408;7.208;2024-03-02T13:29:01;18.90;34.30
4411;DHT22;2218;51.408;7.208;2024-03-02T13:31:28;18.90;34.30
4411;DHT22;2218;51.408;7.208;2024-03-02T13:33:56;18.90;34.30
4411;DHT22;2218;51.408;7.208;2024-03-02T13:36:23;18.90;34.30
4411;DHT22;2218;51.408;7.208;2024-03-02T13:38:51;18.90;34.30
4411;DHT22;2218;51.408;7.208;2024-03-02T13:41:18;18.90;34.40
4411;DHT22;2218;51.408;7.208;2024-03-02T13:43:46;18.90;34.30
4411;DHT22;2218;51.408;7.208;2024-03-02T13:46:13;18.90;34.40
4411;DHT22;2218;51.408;7.208;2024-03-02T13:48:40;18.90;34.40
4411;DHT22;2218;51.408;7.208;2024-03-02T13:51:08;18.90;34.30
4411;DHT22;2218;51.408;7.208;2024-03-02T13:53:35;18.90;34.40
4411;DHT22;2218;51.408;7.208;2024-03-02T13:56:03;18.90;34.30
4411;DHT22;2218;51.408;7.208;2024-03-02T13:58:31;18.90;34.40
4411;DHT22;2218;51.408;7.208;2024-03-02T14:00:58;18.90;34.40
4411;DHT22;2218;51.408;7.208;2024-03-02T14:03:26;18.90;34.40
4411;DHT22;2218;51.408;7.208;2024-03-02T14:05:53;18.90;34.40
4411;DHT22;2218;51.408;7.208;2024-03-02T14:08:22;18.90;34.40
4411;DHT22;2218;51.408;7.208;2024-03-02T14:10:49;18.90;34.40
4411;DHT22;2218;51.408;7.208;2024-03-02T14:13:16;18.90;34.40
4411;DHT22;2218;51.408;7.208;2024-03-02T14:15:44;18.90;34.40
4411;DHT22;2218;51.408;7.208;2024-03-02T14:18:11;18.90;34.40
4411;DHT22;2218;51.408;7.208;2024-03-02T14:20:39;18.90;34.40
4411;DHT22;2218;51.408;7.208;2024-03-02T14:23:08;18.90;34.40
4411;DHT22;2218;51.408;7.208;2024-03-02T14:25:37;18.90;34.90
4411;DHT22;2218;51.408;7.208;2024-03-02T14:28:05;18.90;34.40
4411;DHT22;2218;51.408;7.208;2024-03-02T14:30:32;18.90;34.40
4411;DHT22;2218;51.408;7.208;2024-03-02T14:32:59;18.90;34.40
4411;DHT22;2218;51.408;7.208;2024-03-02T14:35:26;18.90;34.40
4411;DHT22;2218;51.408;7.208;2024-03-02T14:37:54;18.90;34.40
4411;DHT22;2218;51.408;7.208;2024-03-02T14:40:23;18.90;34.40
4411;DHT22;2218;51.408;7.208;2024-03-02T14:42:53;18.90;34.40
4411;DHT22;2218;51.408;7.208;2024-03-02T14:45:20;18.90;34.50
4411;DHT22;2218;51.408;7.208;2024-03-02T14:47:47;18.90;34.40
4411;DHT22;2218;51.408;7.208;2024-03-02T14:50:15;18.90;34.40
4411;DHT22;2218;51.408;7.208;2024-03-02T14:52:44;18.90;34.50
4411;DHT22;2218;51.408;7.208;2024-03-02T14:55:11;18.90;34.50
4411;DHT22;2218;51.408;7.208;2024-03-02T14:57:38;18.80;34.40
4411;DHT22;2218;51.408;7.208;2024-03-02T15:00:08;18.90;34.50
4411;DHT22;2218;51.408;7.208;2024-03-02T15:02:37;18.80;34.40
4411;DHT22;2218;51.408;7.208;2024-03-02T15:05:05;18.80;34.40
4411;DHT22;2218;51.408;7.208;2024-03-02T15:07:32;18.90;34.50
4411;DHT22;2218;51.408;7.208;2024-03-02T15:09:59;18.90;34.50
4411;DHT22;2218;51.408;7.208;2024-03-02T15:12:26;18.80;34.40
4411;DHT22;2218;51.408;7.208;2024-03-02T15:14:53;18.80;34.50
4411;DHT22;2218;51.408;7.208;2024-03-02T15:17:22;18.80;34.40
4411;DHT22;2218;51.408;7.208;2024-03-02T15:19:49;18.90;34.50
4411;DHT22;2218;51.408;7.208;2024-03-02T15:22:16;18.80;34.50
4411;DHT22;2218;51.408;7.208;2024-03-02T15:24:42;18.80;34.50
4411;DHT22;2218;51.408;7.208;2024-03-02T15:27:09;18.80;34.50
4411;DHT22;2218;51.408;7.208;2024-03-02T15:29:36;18.80;34.50
4411;DHT22;2218;51.408;7.208;2024-03-02T15:32:04;18.80;34.50
4411;DHT22;2218;51.408;7.208;2024-03-02T15:34:33;18.80;34.50
4411;DHT22;2218;51.408;7.208;2024-03-02T15:37:00;18.80;34.50
4411;DHT22;2218;51.408;7.208;2024-03-02T15:39:29;18.80;34.50
4411;DHT22;2218;51.408;7.208;2024-03-02T15:41:56;18.80;34.50
4411;DHT22;2218;51.408;7.208;2024-03-02T15:44:23;18.80;34.50
4411;DHT22;2218;51.408;7.208;2024-03-02T15:46:50;18.80;34.60
4411;DHT22;2218;51.408;7.208;2024-03-02T15:49:17;18.80;34.60
4411;DHT22;2218;51.408;7.208;2024-03-02T15:51:45;18.80;34.60
4411;DHT22;2218;51.408;7.208;2024-03-02T15:54:12;18.80;34.60
4411;DHT22;2218;51.408;7.208;2024-03-02T15:56:39;18.80;34.60
4411;DHT22;2218;51.408;7.208;2024-03-02T15:59:06;18.80;34.60
4411;DHT22;2218;51.408;7.208;2024-03-02T16:01:34;18.80;34.60
4411;DHT22;2218;51.408;7.208;2024-03-02T16:04:01;18.80;34.60
4411;DHT22;2218;51.408;7.208;2024-03-02T16:06:28;18.80;34.60
4411;DHT22;2218;51.408;7.208;2024-03-02T16:08:56;18.80;34.60